Time;durP1;ratioP1;P1;durP2;ratioP2;P2;SDS_P1;SDS_P2;PMS_P1;PMS_P2;Temp;Humidity;BMP_temperature;BMP_pressure;BME280_temperature;BME280_humidity;BME280_pressure;Samples;Min_cycle;Max_cycle;Signal;HPM_P1;HPM_P2
2022/08/10 00:01:34;;;;;;;2.42;2.17;;;18.00;99.90;;;;;;6310826;28;20299;-69
2022/08/10 00:04:41;;;;;;;5.18;2.20;;;18.00;99.90;;;;;;6310278;28;20321;-69
2022/08/10 00:07:47;;;;;;;9.48;2.08;;;18.00;99.90;;;;;;6310296;28;20274;-69
2022/08/10 00:10:52;;;;;;;8.10;2.08;;;17.90;99.90;;;;;;6310095;28;20302;-69
2022/08/10 00:13:57;;;;;;;6.32;2.13;;;17.90;99.90;;;;;;6309537;28;20294;-69
2022/08/10 00:17:05;;;;;;;13.13;2.63;;;17.90;99.90;;;;;;6310085;28;20294;-68
2022/08/10 00:20:14;;;;;;;8.63;2.40;;;17.80;99.90;;;;;;6310056;28;20302;-68
2022/08/10 00:23:20;;;;;;;14.82;2.88;;;17.80;99.90;;;;;;6309609;28;20286;-69
2022/08/10 00:26:25;;;;;;;15.10;2.67;;;17.80;99.90;;;;;;6310273;28;20274;-68
2022/08/10 00:29:51;;;;;;;21.20;2.72;;;17.90;99.90;;;;;;6311558;28;20478;-68
2022/08/10 00:32:57;;;;;;;16.85;2.90;;;17.80;99.90;;;;;;6314341;28;20270;-68
2022/08/10 00:36:03;;;;;;;8.23;3.13;;;17.70;99.90;;;;;;6314252;28;20565;-68
2022/08/10 00:39:09;;;;;;;9.05;2.85;;;17.70;99.90;;;;;;6314396;28;20433;-69
2022/08/10 00:42:20;;;;;;;6.18;2.33;;;17.80;99.90;;;;;;6314756;28;20270;-68
2022/08/10 00:45:25;;;;;;;13.52;2.30;;;17.70;99.90;;;;;;6313786;28;20307;-69
2022/08/10 00:48:31;;;;;;;13.45;2.65;;;17.70;99.90;;;;;;6314079;28;20290;-69
2022/08/10 00:51:38;;;;;;;7.07;2.10;;;17.70;99.90;;;;;;6314480;28;20270;-69
2022/08/10 00:54:53;;;;;;;7.40;2.20;;;17.70;99.90;;;;;;6313759;28;20298;-68
2022/08/10 00:57:58;;;;;;;4.82;2.40;;;17.60;99.90;;;;;;6314096;28;20294;-69
2022/08/10 01:01:04;;;;;;;6.75;2.47;;;17.70;99.90;;;;;;6313960;28;20306;-68
2022/08/10 01:04:15;;;;;;;12.98;2.70;;;17.60;99.90;;;;;;6313445;28;20534;-68
2022/08/10 01:08:03;;;;;;;3.20;2.50;;;17.60;99.90;;;;;;6313912;28;20306;-69
2022/08/10 01:11:12;;;;;;;9.68;2.10;;;17.50;99.90;;;;;;6313193;28;20613;-68
2022/08/10 01:14:45;;;;;;;10.50;2.58;;;17.50;99.90;;;;;;6313233;28;20290;-68
2022/08/10 01:17:55;;;;;;;6.00;2.33;;;17.50;99.90;;;;;;6314011;28;20286;-69
2022/08/10 01:21:50;;;;;;;4.40;1.90;;;17.50;99.90;;;;;;6313733;28;20314;-69
2022/08/10 01:25:21;;;;;;;9.30;2.40;;;17.50;99.90;;;;;;6312661;28;20299;-69
2022/08/10 01:28:37;;;;;;;7.03;2.60;;;17.40;99.90;;;;;;6313521;28;20523;-68
2022/08/10 01:31:47;;;;;;;13.77;2.05;;;17.40;99.90;;;;;;6313699;28;20267;-68
2022/08/10 01:34:57;;;;;;;6.00;2.20;;;17.40;99.90;;;;;;6312901;28;20358;-68
2022/08/10 01:38:06;;;;;;;2.80;2.08;;;17.40;99.90;;;;;;6313317;28;20366;-68
2022/08/10 01:41:18;;;;;;;10.48;2.15;;;17.30;99.90;;;;;;6312024;28;20274;-67
2022/08/10 01:44:29;;;;;;;4.25;1.80;;;17.40;99.90;;;;;;6312588;28;20299;-68
2022/08/10 01:51:13;;;;;;;4.80;2.25;;;17.30;99.90;;;;;;6312765;28;20302;-69
2022/08/10 01:54:21;;;;;;;6.45;2.40;;;17.20;99.90;;;;;;6312412;28;20443;-69
2022/08/10 01:57:31;;;;;;;2.55;2.10;;;17.20;99.90;;;;;;6312668;28;20586;-69
2022/08/10 02:00:39;;;;;;;2.13;1.98;;;17.20;99.90;;;;;;6312325;28;20294;-68
2022/08/10 02:03:49;;;;;;;5.80;2.42;;;17.20;99.90;;;;;;6312146;28;20479;-67
2022/08/10 02:07:14;;;;;;;6.20;2.20;;;17.20;99.90;;;;;;6312819;28;20278;-67
2022/08/10 02:10:21;;;;;;;6.00;2.20;;;17.20;99.90;;;;;;6312078;28;20294;-68
2022/08/10 02:13:27;;;;;;;2.17;1.90;;;17.20;99.90;;;;;;6311988;28;20574;-68
2022/08/10 02:16:33;;;;;;;1.95;1.88;;;17.10;99.90;;;;;;6311995;28;20290;-69
2022/08/10 02:19:40;;;;;;;2.25;2.17;;;17.10;99.90;;;;;;6311527;28;20458;-68
2022/08/10 02:22:49;;;;;;;4.38;2.00;;;17.10;99.90;;;;;;6312346;28;20270;-69
2022/08/10 02:25:58;;;;;;;3.55;2.00;;;17.10;99.90;;;;;;6312128;28;20310;-69
2022/08/10 02:29:04;;;;;;;11.98;2.53;;;17.10;99.90;;;;;;6311819;28;20597;-69
2022/08/10 02:32:11;;;;;;;3.90;2.20;;;17.00;99.90;;;;;;6312247;28;20275;-68
2022/08/10 02:35:28;;;;;;;3.33;2.17;;;17.00;99.90;;;;;;6311615;28;20299;-68
2022/08/10 02:38:57;;;;;;;3.85;2.10;;;17.00;99.90;;;;;;6311356;28;20294;-67
2022/08/10 02:42:13;;;;;;;2.25;2.15;;;17.00;99.90;;;;;;6311494;28;20545;-68
2022/08/10 02:45:44;;;;;;;4.05;2.10;;;17.00;99.90;;;;;;6311024;28;20558;-68
2022/08/10 02:48:58;;;;;;;2.03;1.92;;;17.00;99.90;;;;;;6309619;28;20294;-69
2022/08/10 02:52:09;;;;;;;2.00;1.90;;;17.00;99.90;;;;;;6311307;28;20270;-68
2022/08/10 02:55:18;;;;;;;2.35;1.95;;;17.00;99.90;;;;;;6311107;28;20590;-69
2022/08/10 02:58:38;;;;;;;2.22;2.13;;;16.90;99.90;;;;;;6310604;28;20298;-68
2022/08/10 03:01:45;;;;;;;10.75;2.00;;;16.90;99.90;;;;;;6310567;28;20283;-67
2022/08/10 03:04:57;;;;;;;2.22;1.98;;;16.90;99.90;;;;;;6308269;28;20299;-68
2022/08/10 03:08:06;;;;;;;1.70;1.70;;;16.90;99.90;;;;;;6310629;28;20294;-69
2022/08/10 03:11:20;;;;;;;1.90;1.80;;;16.90;99.90;;;;;;6311434;28;20262;-69
2022/08/10 03:14:46;;;;;;;2.00;2.00;;;16.90;99.90;;;;;;6310291;28;20318;-68
2022/08/10 03:17:53;;;;;;;2.05;1.95;;;16.90;99.90;;;;;;6310498;28;20432;-68
2022/08/10 03:21:04;;;;;;;2.00;1.90;;;17.00;99.90;;;;;;6311236;28;20266;-69
2022/08/10 03:24:21;;;;;;;3.70;2.03;;;17.00;99.90;;;;;;6310718;28;20585;-69
2022/08/10 03:27:37;;;;;;;2.08;1.98;;;17.00;99.90;;;;;;6310434;28;20486;-69
2022/08/10 03:30:43;;;;;;;2.15;2.05;;;17.00;99.90;;;;;;6311041;28;20266;-68
2022/08/10 03:33:49;;;;;;;2.05;1.95;;;17.00;99.90;;;;;;6310778;28;20294;-68
2022/08/10 03:36:54;;;;;;;4.88;2.10;;;17.00;99.90;;;;;;6310943;28;20354;-68
2022/08/10 03:40:01;;;;;;;2.33;2.20;;;17.00;99.90;;;;;;6308906;28;20461;-67
2022/08/10 03:43:08;;;;;;;2.22;2.13;;;16.90;99.90;;;;;;6310157;28;20295;-67
2022/08/10 03:46:14;;;;;;;2.33;2.13;;;16.90;99.90;;;;;;6310500;28;20524;-68
2022/08/10 03:49:20;;;;;;;2.58;2.45;;;17.10;99.90;;;;;;6310465;28;20298;-68
2022/08/10 03:52:25;;;;;;;2.22;2.08;;;17.10;99.90;;;;;;6309932;28;20488;-68
2022/08/10 03:55:32;;;;;;;2.10;2.10;;;17.10;99.90;;;;;;6310522;28;20270;-69
2022/08/10 03:58:58;;;;;;;1.98;1.98;;;17.10;99.90;;;;;;6310265;28;20298;-67
2022/08/10 04:02:05;;;;;;;3.13;2.10;;;17.20;99.90;;;;;;6310514;28;20271;-68
2022/08/10 04:05:30;;;;;;;2.80;2.13;;;17.20;99.90;;;;;;6312264;28;20458;-68
2022/08/10 04:08:43;;;;;;;2.15;2.05;;;17.20;99.90;;;;;;6314613;28;20487;-68
2022/08/10 04:11:50;;;;;;;2.50;2.30;;;17.30;99.90;;;;;;6315259;28;20542;-68
2022/08/10 04:14:55;;;;;;;2.33;2.33;;;17.30;99.90;;;;;;6314912;28;20298;-68
2022/08/10 04:18:00;;;;;;;8.48;2.20;;;17.40;99.90;;;;;;6315189;28;20300;-69
2022/08/10 04:21:19;;;;;;;3.15;2.45;;;17.40;99.90;;;;;;6315177;28;20271;-68
2022/08/10 04:24:26;;;;;;;3.03;2.30;;;17.50;99.90;;;;;;6314723;28;20294;-68
2022/08/10 04:27:39;;;;;;;3.97;2.47;;;17.40;99.90;;;;;;6314510;28;20301;-67
2022/08/10 04:30:45;;;;;;;3.78;2.50;;;17.50;99.90;;;;;;6315253;28;20266;-69
2022/08/10 04:33:52;;;;;;;2.53;2.42;;;17.60;99.90;;;;;;6314566;28;20473;-68
2022/08/10 04:37:00;;;;;;;2.65;2.45;;;17.70;99.90;;;;;;6314836;28;20566;-68
2022/08/10 04:40:15;;;;;;;3.33;2.38;;;17.70;99.90;;;;;;6313560;28;20293;-69
2022/08/10 04:43:36;;;;;;;2.33;2.20;;;17.80;99.90;;;;;;6313782;28;20306;-69
2022/08/10 04:46:41;;;;;;;2.63;2.33;;;17.80;99.90;;;;;;6271988;28;20271;-69
2022/08/10 04:50:02;;;;;;;3.72;2.67;;;17.80;99.90;;;;;;6289054;28;20299;-68
2022/08/10 04:53:09;;;;;;;4.72;2.50;;;17.80;99.90;;;;;;6288879;28;20290;-68
2022/08/10 04:56:14;;;;;;;2.63;2.42;;;17.90;99.90;;;;;;6289459;28;20266;-68
2022/08/10 04:59:20;;;;;;;2.88;2.72;;;17.90;99.90;;;;;;6288679;28;20374;-68
2022/08/10 05:02:26;;;;;;;2.20;2.10;;;17.90;99.90;;;;;;6288609;28;20299;-68
2022/08/10 05:05:35;;;;;;;2.53;2.42;;;18.00;99.90;;;;;;6289224;28;20559;-68
2022/08/10 05:08:41;;;;;;;2.75;2.35;;;18.00;99.90;;;;;;6288708;28;20308;-68
2022/08/10 05:11:46;;;;;;;2.85;2.65;;;18.10;99.90;;;;;;6289140;28;20442;-68
2022/08/10 05:14:53;;;;;;;3.60;3.00;;;18.10;99.90;;;;;;6287589;28;20295;-68
2022/08/10 05:17:58;;;;;;;6.32;2.60;;;18.10;99.90;;;;;;6288020;28;20287;-68
2022/08/10 05:21:13;;;;;;;3.20;2.78;;;18.10;99.90;;;;;;6288854;28;20287;-68
2022/08/10 05:24:39;;;;;;;5.38;2.72;;;18.20;99.90;;;;;;6287948;28;20459;-68
2022/08/10 05:27:45;;;;;;;3.50;2.92;;;18.30;99.90;;;;;;6287765;28;20295;-67
2022/08/10 05:30:52;;;;;;;4.40;3.15;;;18.40;99.90;;;;;;6288476;28;20275;-68
2022/08/10 05:33:57;;;;;;;4.88;2.63;;;18.50;99.90;;;;;;6287757;28;20294;-68
2022/08/10 05:37:04;;;;;;;3.80;2.75;;;18.50;99.90;;;;;;6288526;28;20446;-69
2022/08/10 05:40:11;;;;;;;7.47;2.42;;;18.60;99.90;;;;;;6287701;28;20602;-68
2022/08/10 05:43:18;;;;;;;4.47;2.40;;;18.70;99.90;;;;;;6288044;28;20299;-68
2022/08/10 05:46:24;;;;;;;2.50;2.20;;;18.70;99.90;;;;;;6310141;28;20298;-69
2022/08/10 05:49:30;;;;;;;9.05;2.70;;;18.70;99.90;;;;;;6312540;28;20302;-68
2022/08/10 05:52:35;;;;;;;5.15;2.38;;;18.80;99.90;;;;;;6312211;28;20289;-68
2022/08/10 05:55:41;;;;;;;6.07;2.67;;;18.80;99.90;;;;;;6312310;28;20274;-69
2022/08/10 05:58:47;;;;;;;3.00;2.50;;;18.90;99.90;;;;;;6312055;28;20329;-69
2022/08/10 06:01:53;;;;;;;3.33;2.78;;;19.00;99.90;;;;;;6312532;28;20601;-69
2022/08/10 06:05:23;;;;;;;2.78;2.67;;;19.00;99.90;;;;;;6311708;28;20565;-69
2022/08/10 06:08:32;;;;;;;2.97;2.38;;;18.90;99.90;;;;;;6312066;28;20299;-69
2022/08/10 06:11:38;;;;;;;5.25;2.38;;;19.00;99.90;;;;;;6312130;28;20267;-69
2022/08/10 06:15:03;;;;;;;3.75;2.45;;;19.10;99.90;;;;;;6311831;28;20294;-69
2022/08/10 06:18:15;;;;;;;2.67;2.42;;;19.20;99.90;;;;;;6311713;28;20598;-69
2022/08/10 06:21:21;;;;;;;3.20;2.55;;;19.20;99.90;;;;;;6312169;28;20290;-68
2022/08/10 06:24:29;;;;;;;2.60;2.45;;;19.20;99.90;;;;;;6311715;28;20306;-69
2022/08/10 06:27:36;;;;;;;3.03;2.70;;;19.20;99.90;;;;;;6310702;28;20290;-69
2022/08/10 06:30:41;;;;;;;2.58;2.58;;;19.30;99.90;;;;;;6311833;28;20464;-69
2022/08/10 06:33:48;;;;;;;2.53;2.53;;;19.40;99.90;;;;;;6311676;28;20470;-68
2022/08/10 06:36:56;;;;;;;4.38;2.45;;;19.50;99.90;;;;;;6312282;28;20449;-68
2022/08/10 06:40:01;;;;;;;5.20;2.83;;;19.50;99.90;;;;;;6311345;28;20298;-69
2022/08/10 06:43:10;;;;;;;2.55;2.35;;;19.60;99.90;;;;;;6311401;28;20290;-68
2022/08/10 06:46:17;;;;;;;4.95;2.22;;;19.80;99.90;;;;;;6311840;28;20298;-69
2022/08/10 06:49:24;;;;;;;2.40;2.30;;;19.90;99.90;;;;;;6310903;28;20297;-68
2022/08/10 06:52:31;;;;;;;3.30;2.65;;;19.80;99.90;;;;;;6310970;28;20303;-70
2022/08/10 06:55:38;;;;;;;4.05;2.78;;;19.90;99.90;;;;;;6311106;28;20550;-69
2022/08/10 06:59:07;;;;;;;4.70;2.67;;;19.80;99.90;;;;;;6311130;28;20294;-69
2022/08/10 07:02:29;;;;;;;2.95;2.63;;;20.00;99.90;;;;;;6310467;28;20298;-69
2022/08/10 07:05:39;;;;;;;2.80;2.55;;;20.10;99.90;;;;;;6310975;28;20266;-68
2022/08/10 07:08:47;;;;;;;2.97;2.20;;;20.30;99.90;;;;;;6310654;28;20480;-69
2022/08/10 07:11:54;;;;;;;2.88;2.67;;;20.30;99.90;;;;;;6310842;28;20455;-69
2022/08/10 07:15:00;;;;;;;2.70;2.45;;;20.50;99.90;;;;;;6310694;28;20313;-68
2022/08/10 07:18:08;;;;;;;2.50;2.30;;;20.60;99.90;;;;;;6310679;28;20298;-69
2022/08/10 07:21:15;;;;;;;2.42;2.28;;;20.70;99.90;;;;;;6310982;28;20290;-69
2022/08/10 07:24:21;;;;;;;2.47;2.38;;;20.80;99.90;;;;;;6310774;28;20298;-69
2022/08/10 07:27:27;;;;;;;5.35;2.47;;;20.80;99.90;;;;;;6310048;28;20301;-68
2022/08/10 07:30:53;;;;;;;2.40;2.30;;;20.90;99.90;;;;;;6311054;28;20270;-69
2022/08/10 07:33:59;;;;;;;4.20;2.60;;;20.80;99.90;;;;;;6308352;28;20301;-70
2022/08/10 07:37:08;;;;;;;2.10;2.00;;;20.80;99.90;;;;;;6310778;28;20275;-69
2022/08/10 07:40:14;;;;;;;2.45;2.30;;;20.80;99.90;;;;;;6309497;28;20274;-69
2022/08/10 07:43:23;;;;;;;5.45;2.20;;;20.70;99.90;;;;;;6310611;28;20290;-69
2022/08/10 07:46:29;;;;;;;2.03;2.00;;;20.60;99.90;;;;;;6308908;28;20585;-69
2022/08/10 07:49:39;;;;;;;7.45;2.60;;;20.70;99.90;;;;;;6310274;28;20294;-68
2022/08/10 07:52:46;;;;;;;3.60;2.38;;;20.70;99.90;;;;;;6310445;28;20294;-69
2022/08/10 07:55:54;;;;;;;4.15;2.30;;;20.60;99.90;;;;;;6310301;28;20266;-68
2022/08/10 07:59:11;;;;;;;3.15;2.08;;;20.50;99.90;;;;;;6309842;28;20298;-69
2022/08/10 08:02:23;;;;;;;2.50;2.38;;;20.50;99.90;;;;;;6309779;28;20462;-69
2022/08/10 08:05:32;;;;;;;2.92;2.50;;;20.60;99.90;;;;;;6309992;28;20274;-68
2022/08/10 08:09:00;;;;;;;3.83;2.40;;;20.60;99.90;;;;;;6309665;28;20362;-69
2022/08/10 08:12:07;;;;;;;6.93;2.22;;;20.70;99.90;;;;;;6310393;28;20457;-69
2022/08/10 08:15:19;;;;;;;7.07;2.33;;;20.70;99.90;;;;;;6309318;28;20274;-69
2022/08/10 08:18:44;;;;;;;3.13;2.60;;;20.70;99.90;;;;;;6309645;28;20620;-69
2022/08/10 08:22:11;;;;;;;2.20;2.20;;;20.70;99.90;;;;;;6310072;28;20290;-69
2022/08/10 08:25:39;;;;;;;2.40;2.35;;;20.70;99.90;;;;;;6310411;28;20275;-69
2022/08/10 08:28:47;;;;;;;2.45;2.35;;;20.80;99.90;;;;;;6309632;28;20293;-69
2022/08/10 08:31:52;;;;;;;4.40;4.10;;;20.80;99.90;;;;;;6310318;28;20287;-69
2022/08/10 08:35:09;;;;;;;5.72;4.13;;;20.80;99.90;;;;;;6309355;28;20622;-69
2022/08/10 08:38:17;;;;;;;3.83;2.80;;;20.80;99.90;;;;;;6310004;28;20606;-70
2022/08/10 08:41:59;;;;;;;4.90;2.40;;;21.00;99.90;;;;;;6309959;28;20290;-70
2022/08/10 08:45:15;;;;;;;3.45;2.30;;;21.10;99.90;;;;;;6309585;28;20298;-70
2022/08/10 08:48:38;;;;;;;3.72;2.22;;;21.10;99.80;;;;;;6309299;28;20315;-69
2022/08/10 08:51:54;;;;;;;2.15;1.90;;;21.10;99.90;;;;;;6312960;28;20270;-69
2022/08/10 08:55:44;;;;;;;2.30;2.10;;;21.00;99.70;;;;;;6313821;28;20274;-70
2022/08/10 08:59:30;;;;;;;2.78;2.50;;;21.30;99.70;;;;;;6313791;28;20294;-70
2022/08/10 09:03:06;;;;;;;3.90;2.08;;;21.40;99.60;;;;;;6313431;28;20311;-69
2022/08/10 09:06:29;;;;;;;1.95;1.85;;;21.50;99.10;;;;;;6313966;28;20270;-69
2022/08/10 09:10:00;;;;;;;2.38;2.28;;;21.50;98.90;;;;;;6313232;28;20294;-69
2022/08/10 09:13:12;;;;;;;2.70;2.50;;;21.50;98.60;;;;;;6288809;28;20594;-68
2022/08/10 09:16:26;;;;;;;2.20;2.10;;;21.60;99.00;;;;;;6289166;28;20575;-69
2022/08/10 09:19:38;;;;;;;2.35;2.13;;;21.70;98.80;;;;;;6288544;28;20295;-69
2022/08/10 09:22:53;;;;;;;2.00;1.90;;;21.80;98.40;;;;;;6287923;28;20494;-69
2022/08/10 09:26:11;;;;;;;3.35;2.40;;;21.90;97.90;;;;;;6288646;28;20271;-69
2022/08/10 09:29:24;;;;;;;2.15;2.05;;;22.10;98.00;;;;;;6288702;28;20291;-69
2022/08/10 09:32:40;;;;;;;2.22;2.08;;;22.20;98.10;;;;;;6288419;28;20578;-68
2022/08/10 09:36:16;;;;;;;4.10;2.17;;;22.30;97.40;;;;;;6288529;28;20272;-69
2022/08/10 09:39:46;;;;;;;3.22;2.13;;;22.40;97.10;;;;;;6287911;28;20487;-68
2022/08/10 09:43:22;;;;;;;1.70;1.60;;;22.50;97.10;;;;;;6287678;28;20299;-69
2022/08/10 09:46:47;;;;;;;1.83;1.83;;;22.60;97.20;;;;;;6287934;28;20298;-69
2022/08/10 09:50:05;;;;;;;2.88;2.00;;;22.60;96.20;;;;;;6287236;28;20328;-69
2022/08/10 09:53:22;;;;;;;2.13;1.95;;;22.70;96.30;;;;;;6287875;28;20490;-69
2022/08/10 09:56:41;;;;;;;1.90;1.80;;;22.70;96.20;;;;;;6288023;28;20319;-69
2022/08/10 09:59:57;;;;;;;1.50;1.50;;;22.80;96.10;;;;;;6287263;28;20595;-70
2022/08/10 10:03:23;;;;;;;1.98;1.80;;;22.80;96.20;;;;;;6287093;28;20602;-69
2022/08/10 10:06:39;;;;;;;1.70;1.60;;;22.80;95.80;;;;;;6287960;28;20269;-68
2022/08/10 10:09:56;;;;;;;4.28;1.80;;;22.80;95.10;;;;;;6288548;28;20295;-68
2022/08/10 10:13:08;;;;;;;2.13;1.60;;;22.80;95.90;;;;;;6311539;28;20483;-69
2022/08/10 10:16:42;;;;;;;1.70;1.60;;;22.80;95.80;;;;;;6312254;28;20270;-69
2022/08/10 10:19:58;;;;;;;1.30;1.30;;;22.90;95.40;;;;;;6311730;28;20298;-69
2022/08/10 10:23:16;;;;;;;1.95;1.50;;;22.90;95.10;;;;;;6311364;28;20302;-68
2022/08/10 10:26:27;;;;;;;2.95;1.90;;;23.00;95.10;;;;;;6311768;28;20275;-67
2022/08/10 10:29:48;;;;;;;1.90;1.80;;;23.00;95.20;;;;;;6311624;28;20345;-68
2022/08/10 10:33:12;;;;;;;2.55;1.58;;;23.00;94.20;;;;;;6311534;28;20294;-69
2022/08/10 10:36:20;;;;;;;3.53;2.10;;;22.90;94.90;;;;;;6311804;28;20291;-69
2022/08/10 10:39:27;;;;;;;1.88;1.88;;;23.00;95.40;;;;;;6311369;28;20294;-68
2022/08/10 10:42:44;;;;;;;2.10;2.00;;;23.00;95.00;;;;;;6311218;28;20478;-69
2022/08/10 10:46:03;;;;;;;2.03;1.92;;;23.10;95.20;;;;;;6311217;28;20294;-68
2022/08/10 10:49:20;;;;;;;2.35;2.15;;;23.10;94.90;;;;;;6310902;28;20295;-69
2022/08/10 10:52:37;;;;;;;2.97;1.88;;;23.20;95.90;;;;;;6310789;28;20274;-69
2022/08/10 10:55:50;;;;;;;2.00;1.90;;;23.20;95.50;;;;;;6311251;28;20271;-69
2022/08/10 10:59:25;;;;;;;2.28;1.90;;;23.30;95.00;;;;;;6310752;28;20290;-69
2022/08/10 11:03:37;;;;;;;1.73;1.60;;;23.20;94.50;;;;;;6310525;28;20500;-69
2022/08/10 11:06:53;;;;;;;1.67;1.60;;;23.20;94.80;;;;;;6264653;28;20270;-70
2022/08/10 11:10:01;;;;;;;1.90;1.88;;;23.20;95.60;;;;;;6310388;28;20286;-69
2022/08/10 11:13:26;;;;;;;1.50;1.38;;;23.20;94.10;;;;;;6310257;28;20299;-69
2022/08/10 11:16:58;;;;;;;2.13;2.00;;;23.10;94.10;;;;;;6310917;28;20270;-69
2022/08/10 11:20:13;;;;;;;7.05;2.28;;;23.20;94.70;;;;;;6310609;28;20479;-68
2022/08/10 11:23:26;;;;;;;2.00;1.80;;;23.30;94.20;;;;;;6310661;28;20318;-69
2022/08/10 11:26:42;;;;;;;5.45;1.80;;;23.40;94.00;;;;;;6310755;28;20266;-69
2022/08/10 11:29:57;;;;;;;1.70;1.60;;;23.50;94.00;;;;;;6310332;28;20710;-69
2022/08/10 11:33:14;;;;;;;2.17;1.58;;;23.60;94.50;;;;;;6310293;28;20290;-69
2022/08/10 11:36:45;;;;;;;6.05;1.92;;;23.60;93.30;;;;;;6310887;28;20463;-69
2022/08/10 11:39:57;;;;;;;6.57;4.50;;;23.70;93.40;;;;;;6310170;28;20337;-69
2022/08/10 11:43:13;;;;;;;4.25;4.05;;;23.70;93.10;;;;;;6310022;28;20477;-68
2022/08/10 11:46:24;;;;;;;2.75;2.55;;;23.80;92.50;;;;;;6311083;28;20313;-68
2022/08/10 11:49:39;;;;;;;6.43;4.20;;;23.80;94.10;;;;;;6310125;28;20302;-68
2022/08/10 11:52:53;;;;;;;3.28;1.42;;;23.70;92.20;;;;;;6310252;28;20448;-68
2022/08/10 11:56:00;;;;;;;3.25;2.47;;;23.60;93.50;;;;;;6310247;28;20279;-68
2022/08/10 12:02:42;;;;;;;1.70;1.60;;;23.70;92.90;;;;;;6309785;28;20294;-69
2022/08/10 12:05:48;;;;;;;1.63;1.63;;;23.80;91.60;;;;;;6310160;28;20287;-68
2022/08/10 12:08:59;;;;;;;2.00;1.83;;;23.80;92.10;;;;;;6309843;28;20314;-69
2022/08/10 12:12:26;;;;;;;1.70;1.70;;;23.90;91.70;;;;;;6309657;28;20267;-69
2022/08/10 12:15:41;;;;;;;2.30;2.20;;;24.00;91.70;;;;;;6309880;28;20270;-69
2022/08/10 12:18:53;;;;;;;3.38;1.42;;;24.00;92.00;;;;;;6309450;28;20466;-69
2022/08/10 12:22:03;;;;;;;2.05;1.75;;;24.10;91.20;;;;;;6310719;28;20271;-69
2022/08/10 12:25:18;;;;;;;3.60;1.40;;;24.10;91.10;;;;;;6310053;28;20302;-69
2022/08/10 12:28:49;;;;;;;2.28;1.80;;;24.10;91.10;;;;;;6314430;28;20306;-69
2022/08/10 12:32:04;;;;;;;1.50;1.50;;;24.20;91.90;;;;;;6315288;28;20453;-69
2022/08/10 12:35:22;;;;;;;1.60;1.60;;;24.40;91.70;;;;;;6313459;28;20282;-69
2022/08/10 12:38:39;;;;;;;2.67;1.67;;;24.40;91.80;;;;;;6314420;28;20303;-69
2022/08/10 12:41:51;;;;;;;1.73;1.73;;;24.40;91.70;;;;;;6314260;28;20266;-69
2022/08/10 12:45:01;;;;;;;1.65;1.65;;;24.30;91.60;;;;;;6313596;28;20306;-69
2022/08/10 12:48:15;;;;;;;2.45;1.50;;;24.30;91.80;;;;;;6313793;28;20289;-69
2022/08/10 12:51:27;;;;;;;3.30;1.38;;;24.30;91.50;;;;;;6314267;28;20271;-68
2022/08/10 12:54:36;;;;;;;3.83;1.38;;;24.40;91.40;;;;;;6313384;28;20298;-69
2022/08/10 12:57:42;;;;;;;1.65;1.65;;;24.50;91.10;;;;;;6313483;28;20290;-69
2022/08/10 13:00:49;;;;;;;1.60;1.50;;;24.50;91.20;;;;;;6314311;28;20270;-69
2022/08/10 13:04:15;;;;;;;4.43;1.50;;;24.60;91.10;;;;;;6313893;28;20294;-69
2022/08/10 13:07:33;;;;;;;2.47;1.38;;;24.60;91.00;;;;;;6313542;28;20302;-70
2022/08/10 13:11:03;;;;;;;1.33;1.33;;;24.60;90.30;;;;;;6313586;28;20262;-69
2022/08/10 13:14:35;;;;;;;3.53;1.60;;;24.70;90.40;;;;;;6312319;28;20305;-69
2022/08/10 13:17:41;;;;;;;1.67;1.67;;;24.70;90.50;;;;;;6312902;28;20290;-68
2022/08/10 13:20:52;;;;;;;4.00;1.67;;;24.90;90.60;;;;;;6313383;28;20334;-69
2022/08/10 13:24:03;;;;;;;1.70;1.67;;;25.10;90.20;;;;;;6313195;28;20294;-68
2022/08/10 13:27:15;;;;;;;1.63;1.50;;;25.70;89.20;;;;;;6313137;28;20294;-69
2022/08/10 13:30:41;;;;;;;2.20;1.60;;;26.00;88.70;;;;;;6313639;28;20443;-69
2022/08/10 13:33:56;;;;;;;3.70;1.80;;;25.60;90.30;;;;;;6313034;28;20290;-68
2022/08/10 13:37:27;;;;;;;1.70;1.60;;;25.50;89.20;;;;;;6312433;28;20549;-69
2022/08/10 13:40:34;;;;;;;1.60;1.50;;;25.40;90.40;;;;;;6313327;28;20266;-69
2022/08/10 13:43:50;;;;;;;2.38;1.77;;;25.40;89.90;;;;;;6312937;28;20302;-68
2022/08/10 13:46:57;;;;;;;1.60;1.60;;;25.50;89.30;;;;;;6288226;28;20476;-69
2022/08/10 13:50:06;;;;;;;1.63;1.60;;;25.40;89.40;;;;;;6287476;28;20295;-69
2022/08/10 13:53:18;;;;;;;2.83;1.90;;;25.50;90.00;;;;;;6287222;28;20299;-69
2022/08/10 13:56:25;;;;;;;1.70;1.70;;;25.60;90.30;;;;;;6287454;28;20274;-69
2022/08/10 13:59:32;;;;;;;2.05;1.85;;;25.60;90.50;;;;;;6287146;28;20590;-69
2022/08/10 14:03:02;;;;;;;2.22;2.17;;;25.60;90.40;;;;;;6286842;28;20286;-69
2022/08/10 14:06:14;;;;;;;3.42;2.00;;;25.40;90.00;;;;;;6287475;28;20294;-69
2022/08/10 14:09:27;;;;;;;1.70;1.70;;;25.40;90.20;;;;;;6287273;28;20307;-69
2022/08/10 14:12:36;;;;;;;1.83;1.80;;;25.40;90.40;;;;;;6287190;28;20290;-70
2022/08/10 14:15:46;;;;;;;1.80;1.70;;;25.40;90.60;;;;;;6287480;28;20558;-70
2022/08/10 14:18:54;;;;;;;5.38;2.08;;;25.40;90.30;;;;;;6278983;28;20298;-70
2022/08/10 14:21:59;;;;;;;3.33;1.73;;;25.50;90.50;;;;;;6286722;28;20566;-69
2022/08/10 14:25:07;;;;;;;2.13;1.80;;;25.40;90.00;;;;;;6286486;28;20299;-69
2022/08/10 14:28:19;;;;;;;4.28;1.80;;;25.50;90.50;;;;;;6286496;28;20303;-70
2022/08/10 14:31:32;;;;;;;2.33;1.60;;;25.40;90.50;;;;;;6286962;28;20271;-69
2022/08/10 14:34:40;;;;;;;2.55;1.90;;;25.40;90.40;;;;;;6286462;28;20474;-69
2022/08/10 14:38:11;;;;;;;2.13;1.98;;;25.40;90.20;;;;;;6286183;28;20290;-69
2022/08/10 14:41:24;;;;;;;2.13;1.77;;;25.40;90.00;;;;;;6286786;28;20276;-69
2022/08/10 14:44:55;;;;;;;3.78;2.30;;;25.30;90.10;;;;;;6295709;28;20306;-70
2022/08/10 14:48:07;;;;;;;2.75;1.80;;;25.40;90.60;;;;;;6310249;28;20298;-70
2022/08/10 14:51:17;;;;;;;4.85;2.20;;;25.30;90.50;;;;;;6311201;28;20267;-69
2022/08/10 14:54:28;;;;;;;3.88;2.08;;;25.40;90.90;;;;;;6311095;28;20294;-69
2022/08/10 14:57:35;;;;;;;2.25;2.20;;;25.40;90.90;;;;;;6310994;28;20354;-69
2022/08/10 15:01:02;;;;;;;1.70;1.70;;;25.50;90.70;;;;;;6311285;28;20274;-69
2022/08/10 15:04:12;;;;;;;1.75;1.75;;;25.40;90.60;;;;;;6310504;28;20299;-68
2022/08/10 15:07:20;;;;;;;2.03;2.00;;;25.50;90.50;;;;;;6310693;28;20577;-68
2022/08/10 15:10:26;;;;;;;2.75;1.80;;;25.50;90.60;;;;;;6310830;28;20267;-70
2022/08/10 15:13:32;;;;;;;1.73;1.73;;;25.40;90.20;;;;;;6310544;28;20294;-69
2022/08/10 15:16:41;;;;;;;2.13;1.80;;;25.30;90.10;;;;;;6311122;28;20278;-69
2022/08/10 15:19:50;;;;;;;1.60;1.50;;;25.30;90.20;;;;;;6310999;28;20294;-70
2022/08/10 15:23:11;;;;;;;2.05;1.92;;;25.40;90.20;;;;;;6310613;28;20294;-68
2022/08/10 15:26:36;;;;;;;8.88;2.03;;;25.40;90.40;;;;;;6310680;28;20290;-69
2022/08/10 15:29:42;;;;;;;3.40;1.80;;;25.40;90.40;;;;;;6310480;28;20294;-69
2022/08/10 15:40:41;;;;;;;2.10;2.00;;;25.40;90.30;;;;;;6309249;28;20274;-70
2022/08/10 15:43:55;;;;;;;1.90;1.90;;;25.40;91.00;;;;;;6310195;28;20475;-69
2022/08/10 15:47:02;;;;;;;1.90;1.80;;;25.40;90.00;;;;;;6310161;28;20289;-69
2022/08/10 15:50:16;;;;;;;2.25;1.60;;;25.30;89.90;;;;;;6309672;28;20279;-70
2022/08/10 15:53:31;;;;;;;3.08;1.88;;;25.20;90.10;;;;;;6309812;28;20299;-70
2022/08/10 15:56:55;;;;;;;3.15;1.80;;;25.20;90.70;;;;;;6310613;28;20269;-71
2022/08/10 16:00:06;;;;;;;2.10;1.90;;;25.30;90.40;;;;;;6312013;28;20295;-70
2022/08/10 16:03:23;;;;;;;2.08;1.83;;;25.30;90.10;;;;;;6315265;28;20474;-70
2022/08/10 16:06:34;;;;;;;3.85;1.90;;;25.30;90.80;;;;;;6315124;28;20270;-70
2022/08/10 16:09:47;;;;;;;4.50;1.60;;;25.20;90.20;;;;;;6314890;28;20293;-69
2022/08/10 16:13:16;;;;;;;4.25;1.70;;;25.20;90.90;;;;;;6315027;28;20294;-69
2022/08/10 16:16:44;;;;;;;1.60;1.60;;;25.10;90.40;;;;;;6315260;28;20267;-70
2022/08/10 16:19:53;;;;;;;4.38;1.85;;;25.10;90.70;;;;;;6314663;28;20298;-70
2022/08/10 16:23:02;;;;;;;6.53;2.45;;;25.00;90.70;;;;;;6314386;28;20586;-70
2022/08/10 16:26:10;;;;;;;3.22;1.90;;;24.90;90.80;;;;;;6314982;28;20535;-70
2022/08/10 16:29:25;;;;;;;3.97;3.13;;;24.90;91.20;;;;;;6314148;28;20297;-70
2022/08/10 16:32:32;;;;;;;2.60;2.22;;;24.90;91.10;;;;;;6314221;28;20291;-69
2022/08/10 16:35:38;;;;;;;3.08;2.28;;;24.90;92.70;;;;;;6314630;28;20274;-69
2022/08/10 16:38:49;;;;;;;4.70;2.35;;;24.80;92.10;;;;;;6313660;28;20298;-69
2022/08/10 16:42:00;;;;;;;4.32;2.13;;;24.70;91.30;;;;;;6314428;28;20271;-69
2022/08/10 16:45:15;;;;;;;3.53;2.10;;;24.70;90.60;;;;;;6313337;28;20299;-70
2022/08/10 16:48:22;;;;;;;6.22;3.22;;;24.60;90.80;;;;;;6313897;28;20303;-70
2022/08/10 16:51:48;;;;;;;8.45;5.28;;;24.60;91.60;;;;;;6314435;28;20290;-70
2022/08/10 16:54:59;;;;;;;9.43;3.78;;;24.60;91.80;;;;;;6313976;28;20294;-69
2022/08/10 16:58:26;;;;;;;4.57;2.50;;;24.50;91.50;;;;;;6313820;28;20297;-71
2022/08/10 17:01:37;;;;;;;4.15;2.10;;;24.40;91.30;;;;;;6313883;28;20290;-69